createdAt,value
2023-03-27T00:02:07.034Z,2.97
2023-03-27T00:04:38.427Z,3.85
2023-03-27T00:07:10.947Z,3.55
2023-03-27T00:09:45.867Z,3.42
2023-03-27T00:12:18.132Z,3.53
2023-03-27T00:14:50.716Z,3.88
2023-03-27T00:17:23.995Z,4.18
2023-03-27T00:19:56.186Z,4.28
2023-03-27T00:22:27.784Z,3.58
2023-03-27T00:25:00.147Z,4.15
2023-03-27T00:27:34.019Z,3.92
2023-03-27T00:30:08.147Z,3.65
2023-03-27T00:32:40.177Z,3.30
2023-03-27T00:35:17.191Z,4.82
2023-03-27T00:37:50.060Z,4.00
2023-03-27T00:40:22.614Z,5.53
2023-03-27T00:42:59.267Z,4.95
2023-03-27T00:45:35.051Z,5.05
2023-03-27T00:48:09.513Z,5.82
2023-03-27T00:50:45.402Z,5.57
2023-03-27T00:53:21.728Z,5.47
2023-03-27T00:55:55.927Z,4.13
2023-03-27T00:58:33.390Z,4.00
2023-03-27T01:01:06.836Z,4.22
2023-03-27T01:03:40.837Z,5.30
2023-03-27T01:06:17.496Z,6.30
2023-03-27T01:08:54.555Z,6.47
2023-03-27T01:11:29.993Z,4.85
2023-03-27T01:14:15.174Z,6.60
2023-03-27T01:16:58.871Z,4.70
2023-03-27T01:20:08.721Z,5.40
2023-03-27T01:22:42.206Z,5.25
2023-03-27T01:25:29.212Z,4.13
2023-03-27T01:28:13.935Z,4.18
2023-03-27T01:31:03.556Z,3.30
2023-03-27T01:33:58.224Z,4.57
2023-03-27T01:36:53.388Z,2.75
2023-03-27T01:40:11.917Z,3.90
2023-03-27T01:43:01.796Z,3.33
2023-03-27T01:45:50.144Z,3.63
2023-03-27T01:48:25.045Z,4.10
2023-03-27T01:51:12.122Z,3.83
2023-03-27T01:53:55.209Z,3.83
2023-03-27T01:56:54.131Z,3.00
2023-03-27T01:59:28.765Z,4.80
2023-03-27T02:02:09.770Z,5.15
2023-03-27T02:04:48.941Z,4.65
2023-03-27T02:07:24.640Z,5.38
2023-03-27T02:10:00.399Z,5.82
2023-03-27T02:12:36.634Z,5.15
2023-03-27T02:15:24.129Z,5.38
2023-03-27T02:18:06.703Z,3.65
2023-03-27T02:20:40.776Z,4.10
2023-03-27T02:23:16.049Z,4.50
2023-03-27T02:25:48.811Z,3.42
2023-03-27T02:28:47.848Z,3.53
2023-03-27T02:31:32.386Z,4.55
2023-03-27T02:34:36.080Z,4.20
2023-03-27T02:37:45.846Z,4.30
2023-03-27T02:43:45.022Z,2.97
2023-03-27T02:46:55.891Z,5.75
2023-03-27T02:49:59.819Z,3.53
2023-03-27T02:52:52.783Z,2.38
2023-03-27T02:55:29.859Z,2.55
2023-03-27T02:58:05.701Z,2.75
2023-03-27T03:00:50.305Z,3.78
2023-03-27T03:03:47.227Z,5.55
2023-03-27T03:06:38.989Z,4.32
2023-03-27T03:11:51.733Z,4.13
2023-03-27T03:14:31.345Z,2.85
2023-03-27T03:17:03.546Z,4.63
2023-03-27T03:19:35.273Z,4.53
2023-03-27T03:22:08.178Z,3.90
2023-03-27T03:24:43.522Z,3.53
2023-03-27T03:27:24.042Z,3.53
2023-03-27T03:30:09.072Z,3.88
2023-03-27T03:33:01.529Z,4.68
2023-03-27T03:35:33.307Z,5.25
2023-03-27T03:38:08.251Z,4.10
2023-03-27T03:40:48.249Z,4.63
2023-03-27T03:43:23.138Z,3.85
2023-03-27T03:45:55.034Z,5.15
2023-03-27T03:48:27.096Z,4.63
2023-03-27T03:50:58.979Z,4.05
2023-03-27T03:53:30.927Z,4.90
2023-03-27T03:58:35.332Z,5.60
2023-03-27T04:01:10.786Z,4.35
2023-03-27T04:03:48.776Z,4.05
2023-03-27T04:06:22.279Z,4.90
2023-03-27T04:08:54.949Z,4.18
2023-03-27T04:11:49.900Z,3.72
2023-03-27T04:14:47.630Z,3.92
2023-03-27T04:17:40.026Z,7.10
2023-03-27T04:20:14.997Z,6.57
2023-03-27T04:22:48.648Z,4.43
2023-03-27T04:25:21.123Z,8.88
2023-03-27T04:27:53.068Z,6.68
2023-03-27T04:30:29.480Z,6.32
2023-03-27T04:33:20.690Z,6.55
2023-03-27T04:36:10.574Z,4.85
2023-03-27T04:39:05.333Z,4.80
2023-03-27T04:41:36.854Z,6.82
2023-03-27T04:44:09.239Z,9.38
2023-03-27T04:46:44.799Z,7.35
2023-03-27T04:49:17.760Z,4.95
2023-03-27T04:51:56.970Z,12.45
2023-03-27T04:54:33.501Z,5.45
2023-03-27T04:57:05.383Z,6.25
2023-03-27T04:59:38.574Z,6.03
2023-03-27T05:02:29.246Z,6.55
2023-03-27T05:05:07.507Z,6.28
2023-03-27T05:07:40.998Z,6.32
2023-03-27T05:10:12.803Z,6.85
2023-03-27T05:12:48.987Z,5.00
2023-03-27T05:15:22.117Z,6.60
2023-03-27T05:17:56.399Z,5.88
2023-03-27T05:20:29.904Z,5.05
2023-03-27T05:23:08.578Z,4.57
2023-03-27T05:25:41.017Z,4.35
2023-03-27T05:28:17.131Z,4.57
2023-03-27T05:30:51.399Z,4.18
2023-03-27T05:33:25.305Z,6.43
2023-03-27T05:35:59.014Z,6.88
2023-03-27T05:38:31.451Z,3.80
2023-03-27T05:41:17.810Z,6.82
2023-03-27T05:43:53.213Z,5.57
2023-03-27T05:46:25.779Z,4.68
2023-03-27T05:49:04.529Z,7.32
2023-03-27T05:54:07.466Z,7.75
2023-03-27T05:57:05.381Z,8.32
2023-03-27T06:02:27.390Z,6.15
2023-03-27T06:05:06.258Z,5.75
2023-03-27T06:07:43.004Z,6.30
2023-03-27T06:10:19.327Z,6.68
2023-03-27T06:13:11.485Z,8.98
2023-03-27T06:16:03.602Z,6.85
2023-03-27T06:21:27.232Z,6.75
2023-03-27T06:24:04.433Z,6.90
2023-03-27T06:26:36.318Z,7.18
2023-03-27T06:29:08.615Z,7.22
2023-03-27T06:31:46.629Z,6.05
2023-03-27T06:34:31.819Z,5.07
2023-03-27T06:37:08.547Z,7.22
2023-03-27T06:39:44.579Z,5.38
2023-03-27T06:42:16.224Z,6.15
2023-03-27T06:45:11.008Z,6.18
2023-03-27T06:48:21.652Z,6.15
2023-03-27T06:50:57.548Z,7.35
2023-03-27T06:53:33.189Z,8.18
2023-03-27T06:56:08.432Z,8.30
2023-03-27T06:58:59.584Z,8.98
2023-03-27T07:01:31.772Z,6.30
2023-03-27T07:04:22.830Z,7.25
2023-03-27T07:07:07.083Z,6.82
2023-03-27T07:09:42.446Z,6.53
2023-03-27T07:12:19.269Z,6.00
2023-03-27T07:14:51.797Z,6.63
2023-03-27T07:17:23.047Z,8.25
2023-03-27T07:19:56.812Z,4.47
2023-03-27T07:22:30.663Z,4.85
2023-03-27T07:25:13.854Z,7.53
2023-03-27T07:27:47.320Z,6.18
2023-03-27T07:32:50.333Z,6.68
2023-03-27T07:35:21.631Z,8.30
2023-03-27T07:38:28.176Z,9.80
2023-03-27T07:41:12.940Z,7.03
2023-03-27T07:44:09.804Z,6.15
2023-03-27T07:46:54.152Z,7.72
2023-03-27T07:49:39.281Z,5.20
2023-03-27T07:52:16.868Z,6.47
2023-03-27T07:54:59.584Z,6.10
2023-03-27T07:57:59.793Z,8.88
2023-03-27T08:00:37.464Z,8.23
2023-03-27T08:03:16.054Z,9.98
2023-03-27T08:05:59.752Z,7.53
2023-03-27T08:08:34.319Z,7.80
2023-03-27T08:11:06.997Z,7.78
2023-03-27T08:13:42.771Z,6.85
2023-03-27T08:16:20.287Z,7.47
2023-03-27T08:18:51.713Z,7.72
2023-03-27T08:21:24.091Z,6.40
2023-03-27T08:23:57.830Z,8.40
2023-03-27T08:26:38.812Z,9.48
2023-03-27T08:29:13.504Z,6.30
2023-03-27T08:31:46.596Z,5.93
2023-03-27T08:34:19.174Z,7.93
2023-03-27T08:36:54.101Z,9.70
2023-03-27T08:39:27.204Z,8.98
2023-03-27T08:42:10.686Z,5.50
2023-03-27T08:44:42.913Z,6.63
2023-03-27T08:47:20.497Z,5.93
2023-03-27T08:50:02.090Z,7.32
2023-03-27T08:52:49.533Z,6.65
2023-03-27T08:55:41.138Z,8.05
2023-03-27T08:58:23.459Z,6.70
2023-03-27T09:01:14.101Z,7.72
2023-03-27T09:04:16.092Z,7.78
2023-03-27T09:07:04.566Z,7.20
2023-03-27T09:10:00.642Z,6.88
2023-03-27T09:13:05.927Z,6.50
2023-03-27T09:15:59.528Z,5.85
2023-03-27T09:18:41.228Z,6.97
2023-03-27T09:21:30.956Z,6.00
2023-03-27T09:24:38.023Z,6.18
2023-03-27T09:27:34.210Z,10.15
2023-03-27T09:30:31.030Z,5.85
2023-03-27T09:35:40.085Z,5.90
2023-03-27T09:38:43.759Z,10.35
2023-03-27T09:41:32.886Z,7.60
2023-03-27T09:44:27.024Z,9.07
2023-03-27T09:47:09.496Z,8.18
2023-03-27T09:49:46.181Z,6.50
2023-03-27T09:52:38.718Z,5.82
2023-03-27T09:55:36.819Z,7.70
2023-03-27T09:58:31.486Z,8.82
2023-03-27T10:01:23.907Z,6.50
2023-03-27T10:04:01.005Z,6.03
2023-03-27T10:06:55.156Z,6.70
2023-03-27T10:12:17.598Z,6.97
2023-03-27T10:14:53.141Z,6.63
2023-03-27T10:17:43.947Z,6.88
2023-03-27T10:20:23.625Z,6.70
2023-03-27T10:23:09.005Z,6.75
2023-03-27T10:25:52.830Z,8.77
2023-03-27T10:28:32.415Z,7.15
2023-03-27T10:31:36.079Z,9.93
2023-03-27T10:34:39.853Z,20.75
2023-03-27T10:37:32.083Z,18.13
2023-03-27T10:40:33.294Z,15.32
2023-03-27T10:43:14.660Z,13.68
2023-03-27T10:45:58.644Z,14.50
2023-03-27T10:48:49.086Z,11.57
2023-03-27T10:51:55.900Z,9.30
2023-03-27T10:54:45.037Z,8.52
2023-03-27T10:57:35.914Z,6.38
2023-03-27T11:00:22.734Z,8.70
2023-03-27T11:03:25.625Z,6.30
2023-03-27T11:06:06.248Z,5.15
2023-03-27T11:09:07.149Z,6.85
2023-03-27T11:12:14.212Z,7.55
2023-03-27T11:14:59.155Z,6.35
2023-03-27T11:17:43.551Z,4.95
2023-03-27T11:20:36.343Z,6.15
2023-03-27T11:23:59.748Z,6.75
2023-03-27T11:27:01.967Z,7.10
2023-03-27T11:29:40.074Z,5.13
2023-03-27T11:32:40.869Z,7.45
2023-03-27T11:35:26.029Z,6.35
2023-03-27T11:38:35.761Z,6.00
2023-03-27T11:41:09.517Z,6.65
2023-03-27T11:43:42.239Z,7.68
2023-03-27T11:46:48.398Z,6.28
2023-03-27T11:50:00.770Z,6.15
2023-03-27T11:52:49.801Z,5.28
2023-03-27T11:55:55.337Z,5.97
2023-03-27T11:58:31.388Z,5.60
2023-03-27T12:01:28.590Z,6.30
2023-03-27T12:04:17.045Z,6.18
2023-03-27T12:07:37.853Z,7.38
2023-03-27T12:10:44.115Z,6.78
2023-03-27T12:13:42.893Z,6.60
2023-03-27T12:17:02.138Z,7.63
2023-03-27T12:20:26.862Z,8.15
2023-03-27T12:23:13.418Z,7.05
2023-03-27T12:26:11.654Z,8.73
2023-03-27T12:29:23.490Z,10.48
2023-03-27T12:32:41.329Z,10.20
2023-03-27T12:35:34.062Z,8.82
2023-03-27T12:38:09.938Z,6.57
2023-03-27T12:40:44.935Z,5.30
2023-03-27T12:43:35.209Z,6.55
2023-03-27T12:46:30.378Z,8.98
2023-03-27T12:49:37.127Z,6.70
2023-03-27T12:52:22.130Z,9.50
2023-03-27T12:55:32.606Z,5.53
2023-03-27T12:58:06.531Z,8.18
2023-03-27T13:01:04.553Z,4.82
2023-03-27T13:04:10.849Z,8.68
2023-03-27T13:07:01.827Z,5.95
2023-03-27T13:10:03.869Z,7.20
2023-03-27T13:12:52.926Z,5.70
2023-03-27T13:15:41.208Z,4.88
2023-03-27T13:18:26.964Z,3.53
2023-03-27T13:21:27.473Z,3.05
2023-03-27T13:24:06.584Z,4.95
2023-03-27T13:27:01.186Z,5.65
2023-03-27T13:29:37.387Z,5.75
2023-03-27T13:32:42.768Z,4.20
2023-03-27T13:35:35.789Z,4.35
2023-03-27T13:38:07.160Z,4.93
2023-03-27T13:40:58.185Z,6.32
2023-03-27T13:46:15.921Z,4.22
2023-03-27T13:49:18.050Z,4.18
2023-03-27T13:52:33.410Z,3.47
2023-03-27T13:55:20.326Z,5.95
2023-03-27T13:58:34.389Z,5.32
2023-03-27T14:01:29.876Z,4.60
2023-03-27T14:04:26.165Z,4.97
2023-03-27T14:07:43.444Z,7.38
2023-03-27T14:10:37.089Z,5.97
2023-03-27T14:13:30.500Z,6.53
2023-03-27T14:16:10.495Z,4.80
2023-03-27T14:19:03.903Z,5.60
2023-03-27T14:22:02.595Z,4.88
2023-03-27T14:24:50.952Z,6.25
2023-03-27T14:27:34.288Z,6.65
2023-03-27T14:30:32.968Z,6.90
2023-03-27T14:33:24.320Z,8.40
2023-03-27T14:36:07.635Z,5.93
2023-03-27T14:38:39.969Z,4.70
2023-03-27T14:41:30.445Z,4.72
2023-03-27T14:44:05.586Z,4.97
2023-03-27T14:46:49.827Z,6.97
2023-03-27T14:49:37.290Z,6.72
2023-03-27T14:52:13.356Z,5.30
2023-03-27T14:55:37.649Z,4.28
2023-03-27T14:59:05.200Z,6.78
2023-03-27T15:01:58.167Z,5.30
2023-03-27T15:04:49.021Z,5.68
2023-03-27T15:07:39.512Z,6.82
2023-03-27T15:11:10.115Z,7.18
2023-03-27T15:13:54.882Z,6.13
2023-03-27T15:17:09.601Z,5.50
2023-03-27T15:20:15.775Z,7.68
2023-03-27T15:23:08.120Z,5.65
2023-03-27T15:26:26.572Z,8.60
2023-03-27T15:29:24.695Z,7.32
2023-03-27T15:32:23.611Z,8.75
2023-03-27T15:35:55.261Z,8.73
2023-03-27T15:39:04.613Z,9.73
2023-03-27T15:42:13.537Z,9.48
2023-03-27T15:45:05.861Z,7.43
2023-03-27T15:47:37.541Z,8.68
2023-03-27T15:50:26.323Z,8.75
2023-03-27T15:53:49.932Z,9.80
2023-03-27T15:56:42.950Z,8.20
2023-03-27T15:59:51.886Z,7.15
2023-03-27T16:02:26.535Z,7.72
2023-03-27T16:05:34.761Z,6.53
2023-03-27T16:08:06.535Z,8.00
2023-03-27T16:14:11.927Z,5.43
2023-03-27T16:17:02.145Z,8.07
2023-03-27T16:19:50.879Z,6.85
2023-03-27T16:22:32.863Z,5.07
2023-03-27T16:25:22.230Z,8.65
2023-03-27T16:28:00.169Z,7.03
2023-03-27T16:30:49.829Z,5.35
2023-03-27T16:33:24.032Z,5.38
2023-03-27T16:36:14.567Z,6.88
2023-03-27T16:39:05.696Z,8.13
2023-03-27T16:41:55.072Z,8.75
2023-03-27T16:44:44.159Z,5.30
2023-03-27T16:47:34.721Z,5.40
2023-03-27T16:53:17.616Z,7.05
2023-03-27T16:56:07.358Z,7.20
2023-03-27T17:01:27.276Z,5.68
2023-03-27T17:03:59.300Z,5.45
2023-03-27T17:09:01.400Z,5.85
2023-03-27T17:11:32.653Z,6.00
2023-03-27T17:14:04.841Z,7.78
2023-03-27T17:16:36.789Z,5.97
2023-03-27T17:19:08.220Z,5.55
2023-03-27T17:24:10.960Z,6.15
2023-03-27T17:26:42.350Z,7.43
2023-03-27T17:29:13.831Z,7.28
2023-03-27T17:31:45.096Z,6.20
2023-03-27T17:34:16.722Z,6.75
2023-03-27T17:36:54.282Z,6.40
2023-03-27T17:39:26.619Z,5.75
2023-03-27T17:44:28.734Z,5.60
2023-03-27T17:46:59.851Z,7.13
2023-03-27T17:49:32.827Z,6.30
2023-03-27T17:52:09.212Z,6.40
2023-03-27T17:54:41.988Z,5.70
2023-03-27T17:57:13.487Z,5.57
2023-03-27T17:59:47.892Z,5.50
2023-03-27T18:02:23.430Z,7.35
2023-03-27T18:04:55.549Z,5.10
2023-03-27T18:07:27.677Z,8.63
2023-03-27T18:09:59.084Z,6.38
2023-03-27T18:12:30.595Z,6.57
2023-03-27T18:15:01.987Z,7.88
2023-03-27T18:17:36.330Z,5.78
2023-03-27T18:20:12.766Z,4.85
2023-03-27T18:22:44.387Z,6.70
2023-03-27T18:25:15.540Z,6.00
2023-03-27T18:27:46.771Z,8.82
2023-03-27T18:30:19.547Z,7.32
2023-03-27T18:32:51.077Z,8.18
2023-03-27T18:35:23.185Z,8.38
2023-03-27T18:37:55.371Z,7.15
2023-03-27T18:40:26.783Z,9.88
2023-03-27T18:42:58.089Z,6.90
2023-03-27T18:45:29.304Z,6.78
2023-03-27T18:48:00.475Z,7.38
2023-03-27T18:50:32.932Z,7.13
2023-03-27T18:53:04.503Z,7.03
2023-03-27T18:55:35.767Z,7.70
2023-03-27T18:58:07.878Z,7.03
2023-03-27T19:00:39.946Z,8.40
2023-03-27T19:03:19.447Z,7.25
2023-03-27T19:05:50.980Z,9.30
2023-03-27T19:08:23.243Z,9.98
2023-03-27T19:10:59.098Z,5.70
2023-03-27T19:16:34.008Z,5.50
2023-03-27T19:19:24.358Z,6.55
2023-03-27T19:22:28.124Z,7.63
2023-03-27T19:25:07.252Z,6.53
2023-03-27T19:27:39.895Z,5.72
2023-03-27T19:30:13.314Z,6.78
2023-03-27T19:32:44.680Z,5.03
2023-03-27T19:35:16.196Z,5.55
2023-03-27T19:37:47.615Z,5.72
2023-03-27T19:40:20.127Z,5.18
2023-03-27T19:42:52.211Z,5.50
2023-03-27T19:45:23.439Z,6.20
2023-03-27T19:47:55.350Z,7.88
2023-03-27T19:53:11.310Z,5.25
2023-03-27T19:55:43.750Z,6.93
2023-03-27T19:58:15.156Z,5.82
2023-03-27T20:00:51.608Z,7.72
2023-03-27T20:03:25.846Z,7.30
2023-03-27T20:06:06.777Z,5.90
2023-03-27T20:08:41.125Z,7.65
2023-03-27T20:11:12.692Z,6.03
2023-03-27T20:13:55.272Z,4.35
2023-03-27T20:16:29.825Z,4.78
2023-03-27T20:19:07.535Z,5.22
2023-03-27T20:21:42.686Z,4.63
2023-03-27T20:24:18.768Z,3.85
2023-03-27T20:26:58.531Z,4.00
2023-03-27T20:29:30.231Z,4.85
2023-03-27T20:32:01.746Z,5.30
2023-03-27T20:34:33.849Z,5.32
2023-03-27T20:37:13.484Z,4.80
2023-03-27T20:39:50.338Z,5.22
2023-03-27T20:42:24.664Z,5.18
2023-03-27T20:47:41.043Z,4.18
2023-03-27T20:50:13.344Z,7.45
2023-03-27T20:52:48.312Z,7.13
2023-03-27T20:55:32.484Z,6.53
2023-03-27T20:58:08.040Z,5.97
2023-03-27T21:00:39.412Z,6.00
2023-03-27T21:03:11.199Z,5.35
2023-03-27T21:05:42.637Z,7.35
2023-03-27T21:08:14.090Z,3.60
2023-03-27T21:10:45.210Z,4.93
2023-03-27T21:13:16.502Z,5.82
2023-03-27T21:15:48.109Z,6.03
2023-03-27T21:18:21.275Z,4.45
2023-03-27T21:20:53.150Z,4.95
2023-03-27T21:25:54.960Z,5.40
2023-03-27T21:28:26.675Z,6.63
2023-03-27T21:30:57.830Z,2.92
2023-03-27T21:33:28.951Z,5.68
2023-03-27T21:36:00.394Z,4.60
2023-03-27T21:41:04.461Z,5.65
2023-03-27T21:43:36.622Z,8.50
2023-03-27T21:46:08.330Z,5.05
2023-03-27T21:48:41.897Z,4.68
2023-03-27T21:51:13.593Z,5.25
2023-03-27T21:53:44.725Z,5.80
2023-03-27T21:56:16.154Z,5.20
2023-03-27T21:58:47.441Z,5.03
2023-03-27T22:03:49.788Z,3.58
2023-03-27T22:06:20.950Z,1.60
2023-03-27T22:08:52.003Z,3.53
2023-03-27T22:11:23.290Z,4.03
2023-03-27T22:13:54.602Z,2.75
2023-03-27T22:18:56.711Z,2.38
2023-03-27T22:21:30.791Z,3.53
2023-03-27T22:24:02.264Z,4.90
2023-03-27T22:29:09.226Z,5.22
2023-03-27T22:31:40.498Z,3.53
2023-03-27T22:34:12.225Z,3.92
2023-03-27T22:36:43.427Z,2.95
2023-03-27T22:39:14.812Z,2.80
2023-03-27T22:41:46.003Z,2.85
2023-03-27T22:46:48.365Z,5.65
2023-03-27T22:49:19.568Z,3.95
2023-03-27T22:51:50.885Z,3.47
2023-03-27T22:54:22.200Z,3.80
2023-03-27T22:56:56.492Z,9.95
2023-03-27T22:59:28.041Z,5.13
2023-03-27T23:01:59.542Z,7.97
2023-03-27T23:04:33.932Z,6.68
2023-03-27T23:07:05.337Z,9.15
2023-03-27T23:09:36.954Z,5.13
2023-03-27T23:14:39.548Z,4.88
2023-03-27T23:17:10.946Z,4.15
2023-03-27T23:19:42.348Z,5.90
2023-03-27T23:22:13.662Z,5.50
2023-03-27T23:24:44.774Z,4.82
2023-03-27T23:27:15.840Z,4.47
2023-03-27T23:29:47.388Z,4.78
2023-03-27T23:32:18.485Z,3.22
2023-03-27T23:34:49.950Z,3.80
2023-03-27T23:37:21.320Z,3.72
2023-03-27T23:39:52.591Z,4.50
2023-03-27T23:42:23.677Z,4.68
2023-03-27T23:44:55.872Z,3.65
2023-03-27T23:49:57.928Z,3.53
2023-03-27T23:52:28.866Z,2.25
2023-03-27T23:55:00.180Z,4.95
2023-03-27T23:57:31.732Z,4.78
